LTT weather

Lomas Tristes Airport
Tacotalpa, Tabasco, Mexico

Public forecast

Using degrees Celsius for public forecast. Weather courtesy of forecast.io.

METAR (pilot weather report)

Closest report is Carlos Rovirosa Pérez International Airport, 28.9 nm (53.6 km) NNW. Retrieved 2019/06/25 12:47 UTC (1 hour ago):

MMVA 251247Z 08009KT 7SM SCT210 25/21 A2988 RMK 8/001 HZY

TAF (pilot weather forecast)

Forecast is more than 6 hours old.

Closest forecast is Carlos Rovirosa Pérez International Airport, 28.9 nm (53.6 km) NNW. Retrieved 2019/06/25 06:13 UTC (8 hours ago):

TAF MMVA 250506Z 2506/2606 00000KT P6SM SKC FM251800 10012KT P6SM SCT015 SCT080 BKN250 FM260500 09005KT P6SM SKC